createdAt,value
2018-07-21T00:00:00.644Z,9.4
2018-07-21T00:05:00.547Z,9.0
2018-07-21T00:10:00.722Z,8.9
2018-07-21T00:15:00.584Z,9.2
2018-07-21T00:20:00.682Z,9.7
2018-07-21T00:25:00.564Z,10.0
2018-07-21T00:30:00.629Z,10.4
2018-07-21T00:35:00.597Z,10.2
2018-07-21T00:40:00.663Z,10.0
2018-07-21T00:45:00.597Z,9.4
2018-07-21T00:50:00.613Z,9.1
2018-07-21T00:55:00.543Z,9.2
2018-07-21T01:00:00.609Z,9.1
2018-07-21T01:05:00.576Z,9.4
2018-07-21T01:10:00.757Z,9.8
2018-07-21T01:15:00.585Z,10.0
2018-07-21T01:20:00.622Z,10.0
2018-07-21T01:25:00.652Z,9.9
2018-07-21T01:30:00.701Z,9.5
2018-07-21T01:35:00.619Z,9.4
2018-07-21T01:40:00.656Z,8.9
2018-07-21T01:45:00.622Z,8.4
2018-07-21T01:50:00.731Z,8.2
2018-07-21T01:55:00.665Z,8.3
2018-07-21T02:00:00.707Z,8.4
2018-07-21T02:05:00.627Z,8.7
2018-07-21T02:10:00.695Z,8.9
2018-07-21T02:15:00.604Z,9.5
2018-07-21T02:20:00.666Z,9.8
2018-07-21T02:25:00.577Z,10.0
2018-07-21T02:30:00.771Z,10.2
2018-07-21T02:35:00.643Z,10.6
2018-07-21T02:40:00.707Z,10.4
2018-07-21T02:45:00.612Z,10.5
2018-07-21T02:50:00.642Z,10.5
2018-07-21T02:55:00.621Z,11.0
2018-07-21T03:00:00.741Z,11.7
2018-07-21T03:05:00.658Z,12.0
2018-07-21T03:10:00.758Z,12.3
2018-07-21T03:15:00.657Z,12.9
2018-07-21T03:20:00.720Z,12.2
2018-07-21T03:25:00.686Z,11.3
2018-07-21T03:30:00.727Z,11.2
2018-07-21T03:35:00.661Z,11.1
2018-07-21T03:40:00.656Z,10.4
2018-07-21T03:45:00.673Z,10.9
2018-07-21T03:50:00.680Z,11.2
2018-07-21T03:55:00.789Z,11.3
2018-07-21T04:00:00.775Z,11.1
2018-07-21T04:05:00.644Z,11.6
2018-07-21T04:10:00.745Z,10.9
2018-07-21T04:15:00.684Z,11.3
2018-07-21T04:20:00.813Z,11.1
2018-07-21T04:25:00.684Z,11.2
2018-07-21T04:30:00.819Z,11.6
2018-07-21T04:35:00.691Z,12.4
2018-07-21T04:40:00.704Z,12.4
2018-07-21T04:45:00.700Z,12.9
2018-07-21T04:50:00.702Z,13.0
2018-07-21T04:55:00.711Z,12.9
2018-07-21T05:00:00.835Z,13.1
2018-07-21T05:05:00.709Z,12.9
2018-07-21T05:10:00.713Z,13.7
2018-07-21T05:15:00.684Z,14.3
2018-07-21T05:20:00.845Z,14.6
2018-07-21T05:25:00.726Z,14.5
2018-07-21T05:30:00.847Z,14.4
2018-07-21T05:35:00.733Z,12.8
2018-07-21T05:40:00.698Z,12.0
2018-07-21T05:45:00.932Z,11.7
2018-07-21T05:50:00.726Z,11.2
2018-07-21T05:55:00.731Z,11.8
2018-07-21T06:00:00.735Z,11.7
2018-07-21T06:05:00.700Z,11.2
2018-07-21T06:10:00.741Z,11.2
2018-07-21T06:15:00.741Z,11.4
2018-07-21T06:20:05.811Z,10.7
2018-07-21T06:25:00.719Z,11.1
2018-07-21T06:30:00.755Z,11.0
2018-07-21T06:35:00.753Z,10.6
2018-07-21T06:40:00.823Z,10.6
2018-07-21T06:45:00.769Z,10.5
2018-07-21T06:50:00.788Z,10.2
2018-07-21T06:55:00.756Z,10.6
2018-07-21T07:00:00.770Z,10.6
2018-07-21T07:05:00.763Z,10.6
2018-07-21T07:10:00.766Z,10.6
2018-07-21T07:15:00.770Z,11.7
2018-07-21T07:20:00.772Z,11.8
2018-07-21T07:25:00.777Z,12.0
2018-07-21T07:30:00.911Z,11.7
2018-07-21T07:35:00.772Z,12.0
2018-07-21T07:40:00.781Z,11.4
2018-07-21T07:45:00.789Z,11.4
2018-07-21T07:50:00.777Z,11.3
2018-07-21T07:55:00.763Z,11.5
2018-07-21T08:00:00.924Z,11.3
2018-07-21T08:10:00.874Z,11.9
2018-07-21T08:15:00.802Z,12.0
2018-07-21T08:20:00.795Z,12.3
2018-07-21T08:25:00.779Z,12.5
2018-07-21T08:30:00.932Z,12.5
2018-07-21T08:35:00.810Z,12.2
2018-07-21T08:45:00.938Z,12.1
2018-07-21T08:50:00.813Z,11.9
2018-07-21T08:55:00.778Z,12.1
2018-07-21T09:00:00.945Z,11.9
2018-07-21T09:05:00.787Z,11.7
2018-07-21T09:10:00.883Z,12.2
2018-07-21T09:15:00.882Z,12.4
2018-07-21T09:20:00.951Z,12.4
2018-07-21T09:25:00.792Z,12.4
2018-07-21T09:30:00.821Z,12.3
2018-07-21T09:35:05.864Z,11.7
2018-07-21T09:40:00.799Z,11.9
2018-07-21T09:45:00.769Z,12.2
2018-07-21T10:00:00.836Z,12.6
2018-07-21T10:05:00.836Z,12.6
2018-07-21T10:15:00.852Z,12.5
2018-07-21T10:20:01.105Z,12.8
2018-07-21T10:25:00.827Z,12.4
2018-07-21T10:30:01.171Z,12.4
2018-07-21T10:35:00.891Z,12.1
2018-07-21T10:40:00.983Z,12.7
2018-07-21T10:45:00.851Z,12.6
2018-07-21T10:50:00.926Z,13.1
2018-07-21T11:00:00.870Z,13.3
2018-07-21T11:05:00.869Z,12.6
2018-07-21T11:15:00.940Z,12.8
2018-07-21T11:20:00.882Z,12.5
2018-07-21T11:25:00.874Z,12.2
2018-07-21T11:30:00.912Z,12.2
2018-07-21T11:40:00.886Z,12.5
2018-07-21T11:45:00.853Z,12.8
2018-07-21T11:50:00.962Z,13.0
2018-07-21T11:55:00.891Z,12.9
2018-07-21T12:00:00.893Z,12.8
2018-07-21T12:05:00.902Z,12.5
2018-07-21T12:10:01.024Z,12.2
2018-07-21T12:15:00.910Z,12.3
2018-07-21T12:20:00.907Z,12.5
2018-07-21T12:25:05.905Z,12.7
2018-07-21T12:30:00.909Z,12.8
2018-07-21T12:35:00.914Z,13.3
2018-07-21T12:40:01.137Z,12.9
2018-07-21T12:45:00.913Z,12.9
2018-07-21T12:50:00.980Z,12.6
2018-07-21T13:00:00.984Z,11.9
2018-07-21T13:05:00.920Z,12.1
2018-07-21T13:10:01.056Z,11.8
2018-07-21T13:15:00.928Z,11.6
2018-07-21T13:20:00.995Z,11.6
2018-07-21T13:25:00.896Z,11.9
2018-07-21T13:30:00.994Z,11.5
2018-07-21T13:35:00.934Z,11.8
2018-07-21T13:40:01.072Z,12.3
2018-07-21T13:45:00.918Z,12.6
2018-07-21T13:50:01.005Z,12.2
2018-07-21T13:55:01.176Z,12.6
2018-07-21T14:00:01.026Z,12.7
2018-07-21T14:05:00.953Z,12.9
2018-07-21T14:10:01.137Z,12.8
2018-07-21T14:15:00.951Z,13.1
2018-07-21T14:20:01.056Z,12.8
2018-07-21T14:25:00.961Z,12.6
2018-07-21T14:30:01.454Z,12.2
2018-07-21T14:35:00.967Z,12.3
2018-07-21T14:40:01.073Z,12.1
2018-07-21T14:45:00.936Z,12.3
2018-07-21T14:50:01.040Z,11.7
2018-07-21T14:55:01.296Z,11.7
2018-07-21T15:00:01.149Z,11.6
2018-07-21T15:10:00.978Z,11.4
2018-07-21T15:15:00.984Z,11.6
2018-07-21T15:20:01.109Z,11.7
2018-07-21T15:25:00.988Z,11.4
2018-07-21T15:30:01.058Z,11.7
2018-07-21T15:35:01.055Z,11.3
2018-07-21T15:40:01.126Z,11.8
2018-07-21T15:45:01.000Z,12.1
2018-07-21T15:50:01.127Z,12.4
2018-07-21T15:55:00.971Z,12.3
2018-07-21T16:00:01.077Z,13.1
2018-07-21T16:05:01.007Z,13.6
2018-07-21T16:10:01.141Z,13.5
2018-07-21T16:15:04.468Z,13.5
2018-07-21T16:20:01.147Z,13.5
2018-07-21T16:25:01.023Z,14.0
2018-07-21T16:30:01.091Z,13.7
2018-07-21T16:40:01.059Z,13.3
2018-07-21T16:45:01.025Z,13.7
2018-07-21T16:50:01.160Z,13.5
2018-07-21T16:55:01.030Z,13.7
2018-07-21T17:00:01.248Z,14.2
2018-07-21T17:05:01.040Z,14.6
2018-07-21T17:10:01.096Z,14.5
2018-07-21T17:15:01.041Z,14.4
2018-07-21T17:20:01.170Z,14.4
2018-07-21T17:30:01.338Z,14.5
2018-07-21T17:35:01.046Z,15.2
2018-07-21T17:40:01.129Z,15.1
2018-07-21T17:45:01.054Z,15.6
2018-07-21T17:50:01.231Z,15.7
2018-07-21T17:55:01.054Z,15.6
2018-07-21T18:00:01.118Z,15.0
2018-07-21T18:05:01.056Z,15.1
2018-07-21T18:10:01.124Z,15.2
2018-07-21T18:15:01.070Z,15.0
2018-07-21T18:20:01.269Z,15.1
2018-07-21T18:25:01.068Z,15.8
2018-07-21T18:30:01.104Z,15.8
2018-07-21T18:35:01.070Z,15.8
2018-07-21T18:40:01.189Z,16.4
2018-07-21T18:45:01.075Z,17.0
2018-07-21T18:50:01.204Z,16.8
2018-07-21T18:55:01.077Z,17.8
2018-07-21T19:00:01.147Z,17.9
2018-07-21T19:05:01.089Z,18.1
2018-07-21T19:10:01.151Z,17.9
2018-07-21T19:15:01.090Z,17.5
2018-07-21T19:20:01.222Z,17.2
2018-07-21T19:25:01.101Z,17.1
2018-07-21T19:30:01.230Z,16.7
2018-07-21T19:40:01.324Z,16.8
2018-07-21T19:45:01.123Z,16.8
2018-07-21T19:50:01.106Z,16.6
2018-07-21T20:00:01.237Z,16.9
2018-07-21T20:05:01.109Z,17.7
2018-07-21T20:10:01.179Z,17.8
2018-07-21T20:15:01.118Z,18.2
2018-07-21T20:20:01.196Z,18.3
2018-07-21T20:30:01.253Z,17.2
2018-07-21T20:35:01.122Z,17.0
2018-07-21T20:40:01.209Z,16.7
2018-07-21T20:45:01.137Z,16.6
2018-07-21T20:55:01.201Z,16.8
2018-07-21T21:00:01.490Z,17.2
2018-07-21T21:05:01.158Z,17.2
2018-07-21T21:10:01.217Z,16.8
2018-07-21T21:15:01.149Z,17.3
2018-07-21T21:20:01.212Z,17.2
2018-07-21T21:25:01.155Z,17.1
2018-07-21T21:30:01.279Z,16.9
2018-07-21T21:35:01.156Z,17.3
2018-07-21T21:40:01.231Z,17.0
2018-07-21T21:45:01.159Z,17.7
2018-07-21T21:50:01.221Z,17.2
2018-07-21T22:00:01.295Z,17.1
2018-07-21T22:05:01.133Z,17.1
2018-07-21T22:10:01.259Z,16.4
2018-07-21T22:15:01.177Z,16.1
2018-07-21T22:20:01.236Z,16.0
2018-07-21T22:25:01.183Z,15.4
2018-07-21T22:30:01.272Z,14.8
2018-07-21T22:35:01.182Z,14.6
2018-07-21T22:40:01.313Z,14.8
2018-07-21T22:45:01.185Z,14.7
2018-07-21T22:55:01.280Z,13.8
2018-07-21T23:00:01.322Z,13.3
2018-07-21T23:05:01.257Z,13.1
2018-07-21T23:10:01.265Z,12.4
2018-07-21T23:15:01.215Z,12.4
2018-07-21T23:20:01.265Z,13.0
2018-07-21T23:25:01.203Z,13.4
2018-07-21T23:30:01.328Z,13.1
2018-07-21T23:35:01.228Z,13.3
2018-07-21T23:40:01.274Z,12.7
2018-07-21T23:45:01.213Z,12.2
2018-07-21T23:50:01.274Z,11.3
2018-07-21T23:55:01.217Z,11.1
